createdAt,value
2019-05-03T00:07:46.264Z,50.5
2019-05-03T00:17:49.629Z,50.5
2019-05-03T00:27:52.963Z,50.5
2019-05-03T00:37:56.280Z,50.5
2019-05-03T00:48:01.719Z,50.5
2019-05-03T00:58:05.370Z,50.5
2019-05-03T01:08:08.689Z,50.4
2019-05-03T01:18:12.478Z,50.3
2019-05-03T01:28:15.813Z,50.3
2019-05-03T01:38:19.681Z,50.2
2019-05-03T01:48:23.007Z,50.2
2019-05-03T01:58:26.361Z,50.2
2019-05-03T02:08:29.700Z,50.3
2019-05-03T02:18:33.048Z,50.2
2019-05-03T02:28:36.394Z,50.2
2019-05-03T02:38:39.724Z,50.2
2019-05-03T02:48:46.132Z,50.1
2019-05-03T02:58:49.484Z,50
2019-05-03T03:08:52.805Z,50
2019-05-03T03:18:59.369Z,50
2019-05-03T03:29:06.085Z,50
2019-05-03T03:39:09.653Z,49.9
2019-05-03T03:49:15.660Z,49.9
2019-05-03T03:59:19.030Z,49.8
2019-05-03T04:09:25.639Z,49.8
2019-05-03T04:19:29.414Z,49.8
2019-05-03T04:29:32.747Z,49.7
2019-05-03T04:39:36.399Z,49.7
2019-05-03T04:49:39.773Z,49.6
2019-05-03T04:59:45.414Z,49.6
2019-05-03T05:09:48.809Z,49.5
2019-05-03T05:19:52.151Z,49.4
2019-05-03T05:29:55.599Z,49.3
2019-05-03T05:39:58.928Z,49.3
2019-05-03T05:50:02.273Z,49.4
2019-05-03T06:00:05.661Z,49.4
2019-05-03T06:10:09.100Z,49.4
2019-05-03T06:20:12.474Z,49.4
2019-05-03T06:30:15.817Z,49.4
2019-05-03T06:40:19.146Z,49.4
2019-05-03T06:50:28.988Z,49.4
2019-05-03T07:00:32.422Z,49.4
2019-05-03T07:10:35.767Z,49.4
2019-05-03T07:20:39.125Z,49.4
2019-05-03T07:30:42.447Z,49.4
2019-05-03T07:40:45.810Z,49.4
2019-05-03T07:50:49.238Z,49.4
2019-05-03T08:01:09.447Z,49.4
2019-05-03T08:11:14.694Z,49.5
2019-05-03T08:21:18.054Z,52.1
2019-05-03T08:31:26.475Z,53.8
2019-05-03T08:41:30.025Z,54.1
2019-05-03T08:51:35.309Z,54.9
2019-05-03T09:01:39.637Z,55.6
2019-05-03T09:11:45.267Z,55.1
2019-05-03T09:21:48.760Z,55.3
2019-05-03T09:31:52.100Z,55.8
2019-05-03T09:41:55.606Z,54.3
2019-05-03T09:51:59.222Z,53.8
2019-05-03T10:02:05.141Z,53.5
2019-05-03T10:12:08.487Z,53.3
2019-05-03T10:22:11.805Z,53.2
2019-05-03T10:32:16.185Z,53.2
2019-05-03T10:42:19.513Z,53.2
2019-05-03T10:52:22.843Z,53.2
2019-05-03T11:02:26.183Z,53.3
2019-05-03T11:12:29.546Z,54.5
2019-05-03T11:22:35.041Z,54.6
2019-05-03T11:32:38.433Z,54.5
2019-05-03T11:42:41.766Z,54.7
2019-05-03T11:52:47.469Z,54.8
2019-05-03T12:02:50.846Z,53.8
2019-05-03T12:12:55.536Z,53.8
2019-05-03T12:23:00.901Z,53.5
2019-05-03T12:33:08.933Z,53.4
2019-05-03T12:43:12.296Z,53.3
2019-05-03T12:53:15.636Z,53
2019-05-03T13:03:18.966Z,52.7
2019-05-03T13:13:22.296Z,52.6
2019-05-03T13:23:25.688Z,52.7
2019-05-03T13:33:29.032Z,52.8
2019-05-03T13:43:32.390Z,52.9
2019-05-03T13:53:36.229Z,53.6
2019-05-03T14:03:39.552Z,53.9
2019-05-03T14:13:44.715Z,54
2019-05-03T14:23:48.042Z,54.2
2019-05-03T14:33:51.373Z,53.8
2019-05-03T14:43:55.924Z,53.2
2019-05-03T14:53:59.285Z,53
2019-05-03T15:04:02.602Z,52.7
2019-05-03T15:14:05.958Z,52.5
2019-05-03T15:24:09.320Z,52.3
2019-05-03T15:34:12.642Z,52.2
2019-05-03T15:44:15.989Z,52
2019-05-03T15:54:19.311Z,51.7
2019-05-03T16:04:22.642Z,51.7
2019-05-03T16:14:25.954Z,51.7
2019-05-03T16:24:29.281Z,51.7
2019-05-03T16:34:32.612Z,51.6
2019-05-03T16:44:38.464Z,51.7
2019-05-03T16:54:41.810Z,51.4
2019-05-03T17:04:45.332Z,51
2019-05-03T17:14:48.665Z,50.6
2019-05-03T17:24:52.059Z,50.3
2019-05-03T17:34:55.416Z,50.1
2019-05-03T17:44:58.762Z,50.3
2019-05-03T17:55:02.084Z,50.1
2019-05-03T18:05:05.440Z,50.1
2019-05-03T18:15:08.791Z,50
2019-05-03T18:25:14.168Z,49.8
2019-05-03T18:35:17.601Z,49.8
2019-05-03T18:45:20.928Z,49.8
2019-05-03T18:55:25.403Z,49.9
2019-05-03T19:05:28.742Z,49.9
2019-05-03T19:15:32.069Z,49.8
2019-05-03T19:25:49.340Z,49.8
2019-05-03T19:35:55.102Z,49.9
2019-05-03T19:45:58.439Z,49.8
2019-05-03T19:56:01.771Z,49.8
2019-05-03T20:06:05.119Z,49.8
2019-05-03T20:16:08.445Z,49.9
2019-05-03T20:26:11.801Z,49.8
2019-05-03T20:36:15.150Z,49.9
2019-05-03T20:46:18.497Z,49.9
2019-05-03T20:56:21.831Z,49.9
2019-05-03T21:06:36.006Z,49.9
2019-05-03T21:16:39.443Z,49.8
2019-05-03T21:26:42.762Z,49.8
2019-05-03T21:36:48.348Z,49.9
2019-05-03T21:46:51.682Z,49.9
2019-05-03T21:56:58.115Z,49.8
2019-05-03T22:07:01.456Z,49.8
2019-05-03T22:17:04.803Z,49.8
2019-05-03T22:27:08.135Z,49.8
2019-05-03T22:37:11.487Z,49.7
2019-05-03T22:47:14.922Z,49.6
2019-05-03T22:57:18.293Z,49.6
2019-05-03T23:07:21.619Z,49.5
2019-05-03T23:17:25.583Z,49.5
2019-05-03T23:27:28.984Z,49.4
2019-05-03T23:37:34.792Z,49.4
2019-05-03T23:47:38.166Z,49.4
2019-05-03T23:57:41.491Z,49.4
